Portada
METAR-TAF:

METAR-TAF

Aeropuertos :

Shanghái-Pudong, China

Aeropuerto Internacional de Shanghái-Pudong

latitud: 31-07N, longitud: 121-46E, altitud: 4 m

Observación

El informe se hizo hace 32 minutos, a las 17:00 UTC
Viento 10 kt del norte-noreste
Temperatura 11°C
Humedad 66%
Presión 1027 hPa
Visibilidad 10 km o más
sin nubes por debajo de 1500 m y sin presencia de cumulonimbus.

METAR: ZSPD 191700Z 02005MPS CAVOK 11/05 Q1027 NOSIG

Hora: 01:32 (17:32 UTC)

Pronóstico

El informe se hizo hace 8 horas y 11 minutos, a las 09:21 UTC
Pronóstico válido del 19 a las 12 UTC al 20 a las 12 UTC
Viento 8 kt del norte
Visibilidad: 6000 m
Cielo nuboso a una altura de 1300 ft

TAF: ZSPD 190921Z 1912/2012 01004MPS 6000 BKN013 TX13/2006Z TN07/1921Z

Observaciones y pronósticos meteorológicos de más de 4000 aeropuertos (mensajes METAR y TAF).

Los puntos amarillos y rojos representan las estaciones disponibles.

Ponga el ratón en el punto deseado para ver el nombre de la estación.

Haga clic para ver las observaciones y los pronósticos meteorológicos.

Para cambiar el mapa : haga clic en los botones verdes con una cruz de color negro para hacer un zoom, en el botón verde con un guión para alejar o en las flechas verdes para mapas adyacentes.


METAR-TAF: